createdAt,value
2019-05-19T00:01:02.970Z,15.00
2019-05-19T00:03:24.218Z,14.90
2019-05-19T00:05:45.610Z,14.90
2019-05-19T00:08:07.937Z,14.90
2019-05-19T00:10:30.024Z,14.90
2019-05-19T00:12:52.301Z,14.90
2019-05-19T00:15:13.734Z,14.80
2019-05-19T00:17:35.016Z,14.80
2019-05-19T00:19:56.395Z,14.80
2019-05-19T00:22:24.006Z,14.80
2019-05-19T00:24:47.347Z,14.70
2019-05-19T00:27:09.819Z,14.70
2019-05-19T00:29:31.451Z,14.70
2019-05-19T00:31:52.839Z,14.70
2019-05-19T00:34:14.423Z,14.70
2019-05-19T00:36:35.863Z,14.70
2019-05-19T00:38:57.276Z,14.60
2019-05-19T00:41:19.061Z,14.70
2019-05-19T00:43:40.585Z,14.70
2019-05-19T00:46:02.005Z,14.70
2019-05-19T00:48:23.287Z,14.70
2019-05-19T00:50:44.803Z,14.70
2019-05-19T00:53:06.298Z,14.70
2019-05-19T00:55:27.782Z,14.70
2019-05-19T00:57:49.110Z,14.70
2019-05-19T01:00:10.984Z,14.60
2019-05-19T01:02:32.571Z,14.70
2019-05-19T01:04:54.230Z,14.60
2019-05-19T01:07:15.724Z,14.60
2019-05-19T01:09:37.306Z,14.60
2019-05-19T01:11:58.836Z,14.60
2019-05-19T01:14:20.621Z,14.50
2019-05-19T01:16:42.006Z,14.50
2019-05-19T01:19:03.443Z,14.40
2019-05-19T01:21:24.932Z,14.40
2019-05-19T01:23:46.322Z,14.40
2019-05-19T01:26:08.258Z,14.40
2019-05-19T01:28:30.050Z,14.40
2019-05-19T01:30:51.540Z,14.30
2019-05-19T01:33:13.154Z,14.30
2019-05-19T01:35:34.645Z,14.30
2019-05-19T01:37:56.348Z,14.30
2019-05-19T01:40:18.242Z,14.20
2019-05-19T01:42:39.976Z,14.20
2019-05-19T01:45:01.992Z,14.20
2019-05-19T01:47:23.300Z,14.20
2019-05-19T01:49:44.672Z,14.20
2019-05-19T01:52:06.169Z,14.10
2019-05-19T01:54:27.895Z,14.10
2019-05-19T01:56:49.288Z,14.00
2019-05-19T01:59:10.884Z,13.90
2019-05-19T02:01:32.338Z,13.90
2019-05-19T02:03:53.719Z,13.90
2019-05-19T02:06:15.109Z,13.80
2019-05-19T02:08:36.786Z,13.70
2019-05-19T02:10:58.255Z,13.70
2019-05-19T02:13:19.860Z,13.70
2019-05-19T02:15:41.266Z,13.70
2019-05-19T02:18:03.061Z,13.70
2019-05-19T02:20:32.909Z,13.60
2019-05-19T02:22:47.674Z,13.60
2019-05-19T02:25:09.202Z,13.60
2019-05-19T02:27:30.815Z,13.50
2019-05-19T02:29:52.115Z,13.50
2019-05-19T02:32:13.641Z,13.50
2019-05-19T02:34:34.938Z,13.50
2019-05-19T02:36:56.345Z,13.60
2019-05-19T02:39:18.371Z,13.60
2019-05-19T02:41:39.827Z,13.50
2019-05-19T02:44:01.312Z,13.50
2019-05-19T02:46:24.199Z,13.50
2019-05-19T02:48:45.574Z,13.50
2019-05-19T02:51:07.162Z,13.50
2019-05-19T02:53:28.835Z,13.50
2019-05-19T02:55:50.239Z,13.40
2019-05-19T02:58:11.845Z,13.40
2019-05-19T03:00:37.994Z,13.40
2019-05-19T03:02:59.463Z,13.40
2019-05-19T03:05:20.837Z,13.30
2019-05-19T03:07:42.364Z,13.30
2019-05-19T03:10:04.150Z,13.30
2019-05-19T03:12:25.538Z,13.30
2019-05-19T03:14:47.158Z,13.30
2019-05-19T03:17:08.758Z,13.30
2019-05-19T03:19:30.133Z,13.30
2019-05-19T03:21:51.753Z,13.30
2019-05-19T03:24:13.267Z,13.30
2019-05-19T03:26:35.143Z,13.30
2019-05-19T03:28:56.557Z,13.30
2019-05-19T03:31:22.632Z,13.40
2019-05-19T03:33:45.811Z,13.30
2019-05-19T03:36:07.107Z,13.30
2019-05-19T03:38:28.599Z,13.40
2019-05-19T03:40:49.928Z,13.30
2019-05-19T03:43:11.218Z,13.30
2019-05-19T03:45:32.805Z,13.30
2019-05-19T03:48:14.078Z,13.30
2019-05-19T03:50:35.368Z,13.30
2019-05-19T03:52:56.862Z,13.30
2019-05-19T03:55:19.495Z,13.40
2019-05-19T03:57:40.987Z,13.50
2019-05-19T04:00:04.857Z,13.50
2019-05-19T04:02:26.487Z,13.60
2019-05-19T04:04:48.250Z,13.60
2019-05-19T04:07:09.530Z,13.70
2019-05-19T04:09:30.957Z,13.80
2019-05-19T04:11:52.459Z,13.90
2019-05-19T04:14:33.585Z,13.90
2019-05-19T04:16:55.067Z,14.00
2019-05-19T04:19:16.394Z,14.10
2019-05-19T04:21:48.272Z,14.10
2019-05-19T04:24:01.278Z,14.10
2019-05-19T04:26:22.601Z,14.20
2019-05-19T04:28:44.205Z,14.30
2019-05-19T04:31:05.709Z,14.40
2019-05-19T04:33:27.133Z,14.50
2019-05-19T04:35:48.407Z,14.50
2019-05-19T04:38:09.692Z,14.50
2019-05-19T04:40:31.245Z,14.60
2019-05-19T04:42:52.799Z,14.60
2019-05-19T04:45:14.290Z,14.60
2019-05-19T04:47:35.927Z,14.60
2019-05-19T04:49:57.416Z,14.60
2019-05-19T04:52:19.014Z,14.80
2019-05-19T04:55:00.276Z,14.90
2019-05-19T04:57:21.716Z,15.10
2019-05-19T04:59:43.292Z,15.20
2019-05-19T05:02:04.635Z,15.30
2019-05-19T05:04:29.334Z,15.50
2019-05-19T05:06:49.437Z,15.60
2019-05-19T05:09:10.945Z,15.80
2019-05-19T05:11:32.531Z,16.00
2019-05-19T05:13:54.015Z,16.00
2019-05-19T05:16:15.349Z,16.00
2019-05-19T05:18:37.635Z,16.00
2019-05-19T05:20:59.000Z,16.00
2019-05-19T05:23:20.422Z,16.00
2019-05-19T05:25:41.829Z,16.10
2019-05-19T05:28:03.322Z,16.10
2019-05-19T05:30:24.838Z,16.10
2019-05-19T05:32:46.232Z,16.20
2019-05-19T05:35:07.710Z,16.10
2019-05-19T05:37:29.234Z,16.20
2019-05-19T05:39:50.882Z,16.30
2019-05-19T05:42:12.255Z,16.30
2019-05-19T05:44:34.225Z,16.30
2019-05-19T05:46:55.631Z,16.40
2019-05-19T05:49:17.110Z,16.50
2019-05-19T05:51:38.978Z,16.60
2019-05-19T05:54:00.542Z,16.70
2019-05-19T05:56:21.836Z,16.90
2019-05-19T05:58:43.312Z,17.10
2019-05-19T06:01:04.806Z,17.20
2019-05-19T06:03:26.201Z,17.50
2019-05-19T06:05:47.867Z,17.70
2019-05-19T06:08:09.409Z,17.80
2019-05-19T06:10:30.917Z,18.00
2019-05-19T06:12:54.497Z,18.10
2019-05-19T06:15:15.762Z,18.20
2019-05-19T06:17:37.159Z,18.20
2019-05-19T06:19:58.794Z,18.40
2019-05-19T06:22:20.188Z,18.60
2019-05-19T06:24:41.553Z,18.70
2019-05-19T06:27:02.859Z,18.90
2019-05-19T06:29:24.439Z,19.20
2019-05-19T06:31:45.931Z,19.20
2019-05-19T06:34:07.581Z,19.20
2019-05-19T06:36:28.852Z,19.20
2019-05-19T06:38:50.289Z,19.10
2019-05-19T06:41:11.787Z,19.00
2019-05-19T06:43:33.075Z,18.90
2019-05-19T06:45:54.562Z,18.80
2019-05-19T06:48:15.977Z,18.70
2019-05-19T06:50:40.668Z,18.60
2019-05-19T06:53:13.575Z,18.40
2019-05-19T06:55:24.063Z,18.30
2019-05-19T06:57:45.433Z,18.20
2019-05-19T07:00:06.824Z,18.00
2019-05-19T07:02:28.351Z,17.90
2019-05-19T07:04:49.722Z,17.80
2019-05-19T07:07:11.123Z,17.70
2019-05-19T07:09:32.546Z,17.60
2019-05-19T07:11:53.954Z,17.50
2019-05-19T07:14:15.241Z,17.40
2019-05-19T07:16:36.827Z,17.40
2019-05-19T07:18:58.109Z,17.40
2019-05-19T07:21:19.403Z,17.30
2019-05-19T07:23:40.903Z,17.40
2019-05-19T07:26:02.396Z,17.30
2019-05-19T07:28:24.298Z,17.30
2019-05-19T07:30:45.809Z,17.30
2019-05-19T07:33:07.099Z,17.30
2019-05-19T07:35:28.601Z,17.30
2019-05-19T07:37:50.030Z,17.40
2019-05-19T07:40:11.402Z,17.50
2019-05-19T07:42:32.896Z,17.50
2019-05-19T07:44:54.405Z,17.50
2019-05-19T07:47:15.681Z,17.50
2019-05-19T07:49:37.174Z,17.50
2019-05-19T07:51:58.833Z,17.40
2019-05-19T07:54:20.286Z,17.40
2019-05-19T07:56:41.554Z,17.40
2019-05-19T07:59:03.064Z,17.40
2019-05-19T08:01:24.348Z,17.40
2019-05-19T08:03:45.838Z,17.40
2019-05-19T08:06:07.746Z,17.50
2019-05-19T08:08:29.125Z,17.60
2019-05-19T08:10:50.578Z,18.00
2019-05-19T08:13:12.104Z,18.20
2019-05-19T08:15:33.514Z,18.60
2019-05-19T08:17:55.113Z,19.00
2019-05-19T08:20:16.658Z,19.30
2019-05-19T08:22:38.236Z,19.60
2019-05-19T08:24:59.524Z,19.60
2019-05-19T08:27:21.068Z,19.50
2019-05-19T08:29:42.751Z,19.60
2019-05-19T08:32:04.250Z,19.50
2019-05-19T08:34:25.626Z,19.60
2019-05-19T08:36:47.209Z,19.70
2019-05-19T08:39:08.814Z,19.80
2019-05-19T08:41:30.321Z,20.00
2019-05-19T08:43:53.359Z,20.20
2019-05-19T08:46:15.012Z,20.10
2019-05-19T08:48:36.448Z,20.10
2019-05-19T08:50:58.034Z,20.40
2019-05-19T08:53:19.423Z,20.30
2019-05-19T08:55:40.847Z,20.40
2019-05-19T08:58:05.092Z,20.30
2019-05-19T09:00:26.742Z,20.20
2019-05-19T09:02:48.057Z,20.10
2019-05-19T09:05:09.461Z,19.80
2019-05-19T09:07:30.846Z,19.50
2019-05-19T09:09:52.271Z,19.30
2019-05-19T09:12:13.781Z,19.30
2019-05-19T09:14:35.368Z,19.20
2019-05-19T09:16:57.003Z,19.20
2019-05-19T09:19:18.295Z,19.20
2019-05-19T09:21:42.108Z,19.20
2019-05-19T09:24:03.501Z,19.20
2019-05-19T09:26:24.886Z,19.30
2019-05-19T09:28:46.374Z,19.30
2019-05-19T09:31:07.818Z,19.40
2019-05-19T09:33:29.204Z,19.50
2019-05-19T09:35:50.608Z,19.60
2019-05-19T09:38:11.925Z,19.70
2019-05-19T09:40:33.341Z,19.80
2019-05-19T09:42:54.963Z,19.90
2019-05-19T09:45:16.422Z,20.00
2019-05-19T09:47:37.962Z,20.10
2019-05-19T09:49:59.420Z,20.20
2019-05-19T09:52:40.866Z,20.30
2019-05-19T09:55:03.747Z,20.40
2019-05-19T09:57:25.143Z,20.70
2019-05-19T09:59:46.586Z,20.90
2019-05-19T10:02:08.232Z,21.20
2019-05-19T10:04:29.706Z,21.50
2019-05-19T10:06:51.144Z,21.80
2019-05-19T10:09:21.616Z,22.00
2019-05-19T10:12:01.934Z,22.10
2019-05-19T10:14:23.420Z,22.40
2019-05-19T10:16:44.708Z,22.70
2019-05-19T10:19:06.607Z,22.70
2019-05-19T10:21:28.099Z,22.80
2019-05-19T10:23:49.499Z,22.90
2019-05-19T10:26:11.244Z,23.00
2019-05-19T10:28:32.825Z,23.00
2019-05-19T10:30:54.926Z,23.10
2019-05-19T10:33:16.201Z,23.10
2019-05-19T10:35:37.811Z,23.10
2019-05-19T10:37:59.240Z,23.20
2019-05-19T10:40:20.719Z,23.30
2019-05-19T10:42:42.215Z,23.30
2019-05-19T10:45:07.333Z,23.40
2019-05-19T10:47:28.810Z,23.30
2019-05-19T10:49:50.399Z,23.40
2019-05-19T10:52:11.828Z,23.50
2019-05-19T10:54:33.416Z,23.50
2019-05-19T10:56:54.912Z,23.60
2019-05-19T10:59:16.320Z,23.60
2019-05-19T11:01:37.512Z,23.70
2019-05-19T11:03:58.918Z,23.80
2019-05-19T11:06:20.415Z,23.90
2019-05-19T11:08:41.741Z,23.90
2019-05-19T11:11:03.249Z,23.90
2019-05-19T11:13:24.750Z,23.80
2019-05-19T11:15:46.092Z,23.80
2019-05-19T11:18:07.362Z,23.90
2019-05-19T11:20:28.976Z,23.90
2019-05-19T11:22:50.858Z,23.90
2019-05-19T11:25:12.463Z,23.90
2019-05-19T11:27:34.182Z,23.90
2019-05-19T11:29:55.513Z,24.00
2019-05-19T11:32:17.120Z,23.90
2019-05-19T11:34:38.503Z,23.90
2019-05-19T11:37:00.123Z,24.10
2019-05-19T11:39:21.668Z,24.00
2019-05-19T11:41:43.055Z,24.10
2019-05-19T11:44:04.514Z,24.20
2019-05-19T11:46:28.558Z,24.20
2019-05-19T11:48:50.267Z,24.20
2019-05-19T11:51:12.022Z,24.30
2019-05-19T11:53:33.618Z,24.20
2019-05-19T11:56:06.081Z,24.30
2019-05-19T11:58:18.196Z,24.40
2019-05-19T12:00:41.268Z,24.30
2019-05-19T12:03:02.855Z,24.40
2019-05-19T12:05:24.310Z,24.40
2019-05-19T12:07:45.618Z,24.40
2019-05-19T12:10:06.917Z,24.40
2019-05-19T12:12:28.795Z,24.40
2019-05-19T12:14:50.295Z,24.40
2019-05-19T12:17:11.779Z,24.40
2019-05-19T12:19:33.322Z,24.50
2019-05-19T12:21:55.558Z,24.60
2019-05-19T12:24:17.300Z,24.60
2019-05-19T12:26:38.783Z,24.50
2019-05-19T12:29:00.195Z,24.50
2019-05-19T12:31:21.735Z,24.50
2019-05-19T12:33:51.686Z,24.60
2019-05-19T12:36:06.290Z,24.70
2019-05-19T12:38:27.763Z,24.70
2019-05-19T12:40:49.146Z,24.70
2019-05-19T12:43:10.846Z,24.80
2019-05-19T12:45:32.490Z,24.90
2019-05-19T12:47:53.970Z,25.00
2019-05-19T12:50:15.594Z,25.00
2019-05-19T12:52:37.195Z,25.00
2019-05-19T12:54:58.726Z,25.10
2019-05-19T12:57:21.351Z,25.10
2019-05-19T12:59:43.153Z,25.00
2019-05-19T13:02:04.765Z,25.00
2019-05-19T13:04:32.128Z,25.00
2019-05-19T13:06:53.547Z,25.00
2019-05-19T13:09:15.247Z,25.00
2019-05-19T13:11:36.978Z,25.00
2019-05-19T13:13:58.595Z,25.00
2019-05-19T13:16:19.992Z,24.90
2019-05-19T13:18:41.567Z,24.90
2019-05-19T13:21:03.120Z,24.90
2019-05-19T13:23:24.413Z,25.00
2019-05-19T13:25:45.862Z,25.10
2019-05-19T13:28:07.245Z,25.20
2019-05-19T13:30:28.653Z,25.30
2019-05-19T13:32:49.960Z,25.40
2019-05-19T13:35:11.258Z,25.40
2019-05-19T13:37:32.770Z,25.40
2019-05-19T13:40:13.954Z,25.50
2019-05-19T13:42:35.610Z,25.50
2019-05-19T13:44:56.872Z,25.50
2019-05-19T13:47:18.172Z,25.60
2019-05-19T13:49:39.562Z,25.60
2019-05-19T13:52:00.798Z,25.80
2019-05-19T13:54:22.407Z,26.00
2019-05-19T13:56:43.733Z,26.10
2019-05-19T13:59:05.245Z,26.10
2019-05-19T14:01:28.915Z,26.20
2019-05-19T14:03:52.155Z,26.20
2019-05-19T14:06:13.121Z,26.10
2019-05-19T14:08:34.922Z,26.20
2019-05-19T14:10:56.480Z,26.30
2019-05-19T14:13:17.771Z,26.30
2019-05-19T14:15:40.744Z,26.20
2019-05-19T14:18:02.191Z,26.10
2019-05-19T14:20:23.708Z,26.10
2019-05-19T14:22:45.165Z,26.20
2019-05-19T14:25:07.074Z,26.20
2019-05-19T14:27:30.727Z,26.10
2019-05-19T14:29:51.601Z,26.20
2019-05-19T14:32:13.143Z,26.00
2019-05-19T14:34:34.718Z,25.80
2019-05-19T14:36:55.999Z,25.60
2019-05-19T14:39:17.449Z,25.60
2019-05-19T14:41:40.635Z,25.50
2019-05-19T14:44:02.443Z,25.40
2019-05-19T14:46:23.967Z,25.40
2019-05-19T14:48:45.353Z,25.30
2019-05-19T14:51:07.057Z,25.40
2019-05-19T14:53:48.330Z,25.40
2019-05-19T14:56:09.612Z,25.40
2019-05-19T14:58:30.993Z,25.40
2019-05-19T15:00:52.541Z,25.30
2019-05-19T15:03:14.033Z,25.30
2019-05-19T15:05:35.671Z,25.30
2019-05-19T15:07:57.100Z,25.20
2019-05-19T15:10:18.473Z,25.10
2019-05-19T15:12:39.973Z,25.10
2019-05-19T15:15:01.800Z,25.00
2019-05-19T15:17:23.177Z,25.10
2019-05-19T15:19:44.473Z,25.30
2019-05-19T15:22:05.806Z,25.40
2019-05-19T15:24:27.583Z,25.50
2019-05-19T15:26:48.861Z,25.60
2019-05-19T15:29:10.620Z,25.60
2019-05-19T15:31:32.005Z,25.60
2019-05-19T15:33:53.409Z,25.50
2019-05-19T15:36:15.168Z,25.50
2019-05-19T15:38:36.552Z,25.50
2019-05-19T15:40:58.499Z,25.40
2019-05-19T15:43:19.900Z,25.30
2019-05-19T15:45:41.232Z,25.40
2019-05-19T15:48:02.639Z,25.40
2019-05-19T15:50:24.166Z,25.40
2019-05-19T15:52:45.850Z,25.40
2019-05-19T15:55:07.366Z,25.30
2019-05-19T15:57:28.857Z,25.20
2019-05-19T15:59:50.775Z,25.20
2019-05-19T16:02:12.278Z,25.10
2019-05-19T16:04:33.594Z,25.00
2019-05-19T16:06:55.630Z,24.90
2019-05-19T16:09:17.077Z,24.80
2019-05-19T16:11:38.608Z,24.60
2019-05-19T16:14:00.198Z,24.60
2019-05-19T16:16:22.010Z,24.40
2019-05-19T16:18:43.533Z,24.30
2019-05-19T16:21:04.810Z,24.00
2019-05-19T16:23:26.133Z,23.70
2019-05-19T16:25:47.657Z,23.40
2019-05-19T16:28:09.096Z,23.10
2019-05-19T16:30:30.478Z,22.70
2019-05-19T16:32:52.431Z,22.40
2019-05-19T16:35:13.932Z,22.20
2019-05-19T16:37:35.665Z,21.90
2019-05-19T16:39:57.197Z,21.70
2019-05-19T16:42:18.632Z,21.60
2019-05-19T16:44:40.173Z,21.40
2019-05-19T16:47:01.949Z,21.20
2019-05-19T16:49:23.785Z,20.90
2019-05-19T16:51:45.463Z,20.50
2019-05-19T16:54:11.555Z,20.10
2019-05-19T16:56:32.953Z,19.80
2019-05-19T16:58:54.437Z,19.50
2019-05-19T17:01:16.055Z,19.30
2019-05-19T17:03:37.456Z,19.30
2019-05-19T17:05:59.073Z,19.30
2019-05-19T17:08:20.667Z,19.30
2019-05-19T17:10:42.071Z,19.30
2019-05-19T17:13:03.663Z,19.20
2019-05-19T17:15:25.095Z,19.20
2019-05-19T17:17:46.378Z,19.20
2019-05-19T17:20:07.880Z,19.10
2019-05-19T17:22:29.318Z,19.10
2019-05-19T17:24:50.733Z,19.10
2019-05-19T17:27:12.346Z,19.10
2019-05-19T17:29:34.158Z,19.00
2019-05-19T17:32:05.685Z,18.90
2019-05-19T17:34:18.857Z,18.70
2019-05-19T17:36:40.160Z,18.70
2019-05-19T17:39:01.767Z,18.80
2019-05-19T17:41:23.334Z,18.80
2019-05-19T17:43:44.853Z,18.80
2019-05-19T17:46:06.343Z,18.70
2019-05-19T17:48:28.012Z,18.50
2019-05-19T17:50:49.313Z,18.40
2019-05-19T17:53:10.678Z,18.40
2019-05-19T17:55:32.416Z,18.30
2019-05-19T17:57:53.857Z,18.20
2019-05-19T18:00:19.061Z,18.20
2019-05-19T18:02:40.606Z,18.20
2019-05-19T18:05:02.686Z,18.20
2019-05-19T18:07:24.073Z,18.20
2019-05-19T18:09:45.455Z,18.10
2019-05-19T18:12:07.049Z,18.20
2019-05-19T18:14:28.448Z,18.20
2019-05-19T18:16:50.081Z,18.20
2019-05-19T18:19:11.561Z,18.30
2019-05-19T18:21:32.947Z,18.30
2019-05-19T18:23:54.458Z,18.30
2019-05-19T18:26:18.619Z,18.20
2019-05-19T18:28:39.900Z,18.10
2019-05-19T18:31:01.480Z,18.10
2019-05-19T18:33:22.819Z,18.10
2019-05-19T18:35:44.309Z,18.00
2019-05-19T18:38:06.017Z,18.00
2019-05-19T18:40:27.305Z,17.90
2019-05-19T18:42:48.898Z,18.00
2019-05-19T18:45:10.333Z,17.90
2019-05-19T18:47:32.130Z,17.90
2019-05-19T18:49:53.734Z,17.90
2019-05-19T18:52:15.163Z,17.90
2019-05-19T18:54:36.638Z,17.80
2019-05-19T18:56:58.269Z,17.90
2019-05-19T18:59:19.685Z,17.90
2019-05-19T19:01:41.296Z,18.00
2019-05-19T19:04:02.887Z,18.10
2019-05-19T19:06:26.714Z,18.00
2019-05-19T19:08:48.414Z,17.90
2019-05-19T19:11:09.933Z,17.80
2019-05-19T19:13:31.552Z,17.80
2019-05-19T19:15:53.039Z,17.70
2019-05-19T19:18:14.537Z,17.80
2019-05-19T19:20:36.128Z,17.80
2019-05-19T19:22:57.558Z,17.80
2019-05-19T19:25:18.949Z,17.90
2019-05-19T19:27:40.400Z,18.00
2019-05-19T19:30:04.132Z,18.00
2019-05-19T19:32:25.654Z,18.00
2019-05-19T19:34:47.114Z,18.00
2019-05-19T19:37:08.587Z,18.00
2019-05-19T19:39:29.973Z,18.00
2019-05-19T19:41:51.385Z,18.00
2019-05-19T19:44:12.893Z,17.90
2019-05-19T19:46:34.427Z,17.90
2019-05-19T19:48:55.690Z,17.80
2019-05-19T19:51:16.979Z,17.80
2019-05-19T19:53:38.661Z,17.80
2019-05-19T19:56:00.189Z,17.90
2019-05-19T19:58:21.748Z,17.90
2019-05-19T20:00:43.564Z,17.90
2019-05-19T20:03:05.551Z,17.90
2019-05-19T20:05:28.360Z,17.90
2019-05-19T20:07:50.275Z,17.90
2019-05-19T20:10:11.561Z,18.00
2019-05-19T20:12:32.944Z,18.00
2019-05-19T20:14:54.561Z,17.90
2019-05-19T20:17:16.049Z,18.00
2019-05-19T20:19:37.560Z,17.90
2019-05-19T20:21:59.176Z,18.00
2019-05-19T20:24:20.770Z,18.00
2019-05-19T20:27:01.942Z,18.00
2019-05-19T20:29:23.433Z,18.00
2019-05-19T20:31:44.693Z,18.00
2019-05-19T20:34:06.118Z,18.00
2019-05-19T20:36:27.522Z,18.00
2019-05-19T20:38:48.921Z,18.00
2019-05-19T20:41:10.367Z,17.90
2019-05-19T20:43:31.768Z,18.00
2019-05-19T20:45:53.149Z,18.00
2019-05-19T20:48:14.461Z,18.00
2019-05-19T20:50:35.938Z,18.00
2019-05-19T20:52:57.531Z,18.00
2019-05-19T20:55:18.954Z,18.00
2019-05-19T20:57:40.363Z,18.00
2019-05-19T21:00:03.140Z,18.00
2019-05-19T21:02:24.670Z,17.90
2019-05-19T21:04:46.155Z,17.90
2019-05-19T21:07:08.550Z,17.90
2019-05-19T21:09:35.943Z,17.80
2019-05-19T21:11:57.232Z,17.80
2019-05-19T21:14:19.202Z,17.90
2019-05-19T21:16:40.647Z,17.80
2019-05-19T21:19:02.266Z,17.80
2019-05-19T21:21:23.721Z,17.80
2019-05-19T21:23:45.014Z,17.80
2019-05-19T21:26:06.287Z,17.80
2019-05-19T21:28:27.684Z,17.80
2019-05-19T21:30:49.000Z,17.80
2019-05-19T21:33:10.374Z,17.70
2019-05-19T21:35:31.650Z,17.70
2019-05-19T21:37:53.064Z,17.70
2019-05-19T21:40:16.432Z,17.60
2019-05-19T21:42:37.819Z,17.50
2019-05-19T21:44:59.230Z,17.40
2019-05-19T21:47:20.660Z,17.40
2019-05-19T21:49:42.234Z,17.30
2019-05-19T21:52:03.676Z,17.30
2019-05-19T21:54:26.013Z,17.30
2019-05-19T21:56:47.377Z,17.40
2019-05-19T21:59:08.833Z,17.40
2019-05-19T22:01:30.338Z,17.40
2019-05-19T22:03:51.846Z,17.40
2019-05-19T22:06:13.859Z,17.40
2019-05-19T22:08:35.268Z,17.40
2019-05-19T22:10:56.874Z,17.40
2019-05-19T22:13:18.406Z,17.40
2019-05-19T22:15:40.007Z,17.40
2019-05-19T22:18:01.416Z,17.20
2019-05-19T22:20:22.956Z,17.20
2019-05-19T22:22:44.328Z,17.20
2019-05-19T22:25:06.208Z,17.10
2019-05-19T22:27:27.758Z,17.10
2019-05-19T22:29:49.341Z,17.00
2019-05-19T22:32:10.849Z,16.90
2019-05-19T22:34:32.670Z,17.00
2019-05-19T22:36:54.075Z,16.80
2019-05-19T22:39:15.548Z,16.90
2019-05-19T22:41:36.984Z,16.80
2019-05-19T22:43:58.274Z,16.70
2019-05-19T22:46:19.558Z,16.60
2019-05-19T22:48:41.086Z,16.60
2019-05-19T22:51:02.712Z,16.50
2019-05-19T22:53:24.709Z,16.40
2019-05-19T22:55:46.339Z,16.40
2019-05-19T22:58:08.006Z,16.40
2019-05-19T23:00:29.378Z,16.30
2019-05-19T23:02:50.937Z,16.20
2019-05-19T23:05:14.297Z,16.20
2019-05-19T23:07:35.592Z,16.20
2019-05-19T23:09:57.125Z,16.20
2019-05-19T23:12:18.396Z,16.20
2019-05-19T23:14:39.880Z,16.20
2019-05-19T23:17:01.415Z,16.20
2019-05-19T23:19:22.722Z,16.20
2019-05-19T23:21:44.660Z,16.20
2019-05-19T23:24:06.001Z,16.20
2019-05-19T23:26:27.560Z,16.20
2019-05-19T23:28:48.965Z,16.10
2019-05-19T23:31:15.754Z,16.10
2019-05-19T23:33:37.338Z,16.10
2019-05-19T23:35:58.735Z,16.10
2019-05-19T23:38:20.063Z,16.00
2019-05-19T23:40:41.541Z,16.00
2019-05-19T23:43:03.072Z,16.00
2019-05-19T23:45:24.603Z,16.00
2019-05-19T23:47:46.302Z,16.00
2019-05-19T23:50:07.690Z,15.90
2019-05-19T23:52:29.434Z,15.90
2019-05-19T23:54:51.030Z,15.90
2019-05-19T23:57:12.541Z,15.90
2019-05-19T23:59:48.880Z,15.90
